sensor_id;sensor_type;location;lat;lon;timestamp;P1;durP1;ratioP1;P2;durP2;ratioP2
27428;SDS011;14881;48.092;11.574;2024-02-28T00:01:28;37.33;;;25.55;;
27428;SDS011;14881;48.092;11.574;2024-02-28T00:03:56;36.75;;;24.80;;
27428;SDS011;14881;48.092;11.574;2024-02-28T00:06:25;36.95;;;24.67;;
27428;SDS011;14881;48.092;11.574;2024-02-28T00:08:53;34.83;;;25.80;;
27428;SDS011;14881;48.092;11.574;2024-02-28T00:11:21;37.08;;;26.35;;
27428;SDS011;14881;48.092;11.574;2024-02-28T00:13:49;35.60;;;24.70;;
27428;SDS011;14881;48.092;11.574;2024-02-28T00:16:16;38.92;;;25.23;;
27428;SDS011;14881;48.092;11.574;2024-02-28T00:18:44;38.13;;;26.17;;
27428;SDS011;14881;48.092;11.574;2024-02-28T00:21:12;41.85;;;26.08;;
27428;SDS011;14881;48.092;11.574;2024-02-28T00:23:41;36.97;;;25.98;;
27428;SDS011;14881;48.092;11.574;2024-02-28T00:26:10;38.05;;;26.05;;
27428;SDS011;14881;48.092;11.574;2024-02-28T00:28:38;37.05;;;26.48;;
27428;SDS011;14881;48.092;11.574;2024-02-28T00:31:06;38.85;;;26.17;;
27428;SDS011;14881;48.092;11.574;2024-02-28T00:33:34;37.60;;;26.42;;
27428;SDS011;14881;48.092;11.574;2024-02-28T00:36:02;35.22;;;25.42;;
27428;SDS011;14881;48.092;11.574;2024-02-28T00:38:30;36.10;;;25.08;;
27428;SDS011;14881;48.092;11.574;2024-02-28T00:40:59;37.72;;;26.10;;
27428;SDS011;14881;48.092;11.574;2024-02-28T00:43:27;42.03;;;28.08;;
27428;SDS011;14881;48.092;11.574;2024-02-28T00:45:55;39.42;;;27.80;;
27428;SDS011;14881;48.092;11.574;2024-02-28T00:48:24;38.60;;;26.98;;
27428;SDS011;14881;48.092;11.574;2024-02-28T00:50:53;37.42;;;26.58;;
27428;SDS011;14881;48.092;11.574;2024-02-28T00:53:20;38.95;;;26.70;;
27428;SDS011;14881;48.092;11.574;2024-02-28T00:55:48;35.95;;;25.05;;
27428;SDS011;14881;48.092;11.574;2024-02-28T00:58:19;39.45;;;25.92;;
27428;SDS011;14881;48.092;11.574;2024-02-28T01:00:47;36.70;;;24.63;;
27428;SDS011;14881;48.092;11.574;2024-02-28T01:03:15;34.47;;;22.95;;
27428;SDS011;14881;48.092;11.574;2024-02-28T01:05:44;37.08;;;23.45;;
27428;SDS011;14881;48.092;11.574;2024-02-28T01:08:13;32.72;;;21.55;;
27428;SDS011;14881;48.092;11.574;2024-02-28T01:10:43;38.00;;;25.80;;
27428;SDS011;14881;48.092;11.574;2024-02-28T01:13:11;40.08;;;25.42;;
27428;SDS011;14881;48.092;11.574;2024-02-28T01:15:40;38.45;;;24.48;;
27428;SDS011;14881;48.092;11.574;2024-02-28T01:18:09;37.63;;;23.33;;
27428;SDS011;14881;48.092;11.574;2024-02-28T01:20:37;31.13;;;23.08;;
27428;SDS011;14881;48.092;11.574;2024-02-28T01:23:05;31.42;;;23.42;;
27428;SDS011;14881;48.092;11.574;2024-02-28T01:25:33;33.05;;;23.00;;
27428;SDS011;14881;48.092;11.574;2024-02-28T01:28:00;28.02;;;18.40;;
27428;SDS011;14881;48.092;11.574;2024-02-28T01:30:28;24.80;;;18.58;;
27428;SDS011;14881;48.092;11.574;2024-02-28T01:32:57;29.45;;;19.77;;
27428;SDS011;14881;48.092;11.574;2024-02-28T01:35:25;31.48;;;21.30;;
27428;SDS011;14881;48.092;11.574;2024-02-28T01:37:53;32.17;;;22.27;;
27428;SDS011;14881;48.092;11.574;2024-02-28T01:40:21;32.88;;;22.55;;
27428;SDS011;14881;48.092;11.574;2024-02-28T01:42:48;36.20;;;23.95;;
27428;SDS011;14881;48.092;11.574;2024-02-28T01:45:17;31.08;;;23.42;;
27428;SDS011;14881;48.092;11.574;2024-02-28T01:47:44;34.35;;;24.30;;
27428;SDS011;14881;48.092;11.574;2024-02-28T01:50:14;34.38;;;23.30;;
27428;SDS011;14881;48.092;11.574;2024-02-28T01:52:44;33.20;;;23.08;;
27428;SDS011;14881;48.092;11.574;2024-02-28T01:55:12;41.72;;;28.63;;
27428;SDS011;14881;48.092;11.574;2024-02-28T01:57:40;43.75;;;28.85;;
27428;SDS011;14881;48.092;11.574;2024-02-28T02:00:09;44.85;;;29.33;;
27428;SDS011;14881;48.092;11.574;2024-02-28T02:02:38;40.95;;;28.92;;
27428;SDS011;14881;48.092;11.574;2024-02-28T02:05:06;43.70;;;29.80;;
27428;SDS011;14881;48.092;11.574;2024-02-28T02:07:37;46.55;;;29.65;;
27428;SDS011;14881;48.092;11.574;2024-02-28T02:10:06;46.58;;;30.25;;
27428;SDS011;14881;48.092;11.574;2024-02-28T02:12:36;43.75;;;29.13;;
27428;SDS011;14881;48.092;11.574;2024-02-28T02:15:05;42.47;;;29.83;;
27428;SDS011;14881;48.092;11.574;2024-02-28T02:17:33;47.42;;;30.50;;
27428;SDS011;14881;48.092;11.574;2024-02-28T02:20:01;47.10;;;30.67;;
27428;SDS011;14881;48.092;11.574;2024-02-28T02:22:33;43.05;;;29.60;;
27428;SDS011;14881;48.092;11.574;2024-02-28T02:25:02;44.92;;;30.95;;
27428;SDS011;14881;48.092;11.574;2024-02-28T02:27:30;44.10;;;29.52;;
27428;SDS011;14881;48.092;11.574;2024-02-28T02:29:58;40.92;;;28.80;;
27428;SDS011;14881;48.092;11.574;2024-02-28T02:32:26;45.70;;;30.65;;
27428;SDS011;14881;48.092;11.574;2024-02-28T02:34:55;44.65;;;30.73;;
27428;SDS011;14881;48.092;11.574;2024-02-28T02:37:22;43.60;;;30.20;;
27428;SDS011;14881;48.092;11.574;2024-02-28T02:39:52;44.80;;;31.02;;
27428;SDS011;14881;48.092;11.574;2024-02-28T02:42:20;48.20;;;32.17;;
27428;SDS011;14881;48.092;11.574;2024-02-28T02:44:48;48.83;;;31.67;;
27428;SDS011;14881;48.092;11.574;2024-02-28T02:47:16;46.30;;;30.95;;
27428;SDS011;14881;48.092;11.574;2024-02-28T02:49:43;47.28;;;31.42;;
27428;SDS011;14881;48.092;11.574;2024-02-28T02:52:11;46.20;;;31.20;;
27428;SDS011;14881;48.092;11.574;2024-02-28T02:54:39;43.90;;;30.80;;
27428;SDS011;14881;48.092;11.574;2024-02-28T02:57:08;48.08;;;32.78;;
27428;SDS011;14881;48.092;11.574;2024-02-28T02:59:36;47.10;;;31.75;;
27428;SDS011;14881;48.092;11.574;2024-02-28T03:02:04;48.75;;;31.73;;
27428;SDS011;14881;48.092;11.574;2024-02-28T03:04:32;45.58;;;31.00;;
27428;SDS011;14881;48.092;11.574;2024-02-28T03:07:00;49.10;;;31.23;;
27428;SDS011;14881;48.092;11.574;2024-02-28T03:09:27;50.00;;;32.83;;
27428;SDS011;14881;48.092;11.574;2024-02-28T03:11:55;53.40;;;35.58;;
27428;SDS011;14881;48.092;11.574;2024-02-28T03:14:24;56.15;;;35.80;;
27428;SDS011;14881;48.092;11.574;2024-02-28T03:16:53;55.15;;;35.35;;
27428;SDS011;14881;48.092;11.574;2024-02-28T03:19:21;52.13;;;34.53;;
27428;SDS011;14881;48.092;11.574;2024-02-28T03:21:49;60.25;;;38.35;;
27428;SDS011;14881;48.092;11.574;2024-02-28T03:24:16;55.47;;;36.22;;
27428;SDS011;14881;48.092;11.574;2024-02-28T03:26:44;51.92;;;36.63;;
27428;SDS011;14881;48.092;11.574;2024-02-28T03:29:12;63.75;;;39.28;;
27428;SDS011;14881;48.092;11.574;2024-02-28T03:31:42;65.25;;;41.10;;
27428;SDS011;14881;48.092;11.574;2024-02-28T03:34:09;64.03;;;40.28;;
27428;SDS011;14881;48.092;11.574;2024-02-28T03:36:37;64.25;;;41.75;;
27428;SDS011;14881;48.092;11.574;2024-02-28T03:39:05;76.22;;;43.95;;
27428;SDS011;14881;48.092;11.574;2024-02-28T03:41:33;74.13;;;44.95;;
27428;SDS011;14881;48.092;11.574;2024-02-28T03:44:01;75.60;;;45.40;;
27428;SDS011;14881;48.092;11.574;2024-02-28T03:46:28;74.40;;;44.30;;
27428;SDS011;14881;48.092;11.574;2024-02-28T03:48:58;67.68;;;42.75;;
27428;SDS011;14881;48.092;11.574;2024-02-28T03:51:26;70.25;;;43.53;;
27428;SDS011;14881;48.092;11.574;2024-02-28T03:53:53;69.28;;;41.92;;
27428;SDS011;14881;48.092;11.574;2024-02-28T03:56:22;69.82;;;42.95;;
27428;SDS011;14881;48.092;11.574;2024-02-28T03:58:51;68.88;;;42.33;;
27428;SDS011;14881;48.092;11.574;2024-02-28T04:01:20;70.47;;;42.95;;
27428;SDS011;14881;48.092;11.574;2024-02-28T04:03:48;74.07;;;42.97;;
27428;SDS011;14881;48.092;11.574;2024-02-28T04:06:26;68.60;;;44.20;;
27428;SDS011;14881;48.092;11.574;2024-02-28T04:08:54;67.32;;;42.30;;
27428;SDS011;14881;48.092;11.574;2024-02-28T04:11:21;73.57;;;44.85;;
27428;SDS011;14881;48.092;11.574;2024-02-28T04:13:50;73.18;;;42.92;;
27428;SDS011;14881;48.092;11.574;2024-02-28T04:16:18;66.20;;;40.75;;
27428;SDS011;14881;48.092;11.574;2024-02-28T04:18:46;68.47;;;42.33;;
27428;SDS011;14881;48.092;11.574;2024-02-28T04:21:13;63.85;;;40.20;;
27428;SDS011;14881;48.092;11.574;2024-02-28T04:23:43;60.88;;;38.63;;
27428;SDS011;14881;48.092;11.574;2024-02-28T04:26:11;59.90;;;38.50;;
27428;SDS011;14881;48.092;11.574;2024-02-28T04:28:38;64.32;;;39.83;;
27428;SDS011;14881;48.092;11.574;2024-02-28T04:31:06;62.22;;;37.92;;
27428;SDS011;14881;48.092;11.574;2024-02-28T04:33:35;62.28;;;39.20;;
27428;SDS011;14881;48.092;11.574;2024-02-28T04:36:04;63.22;;;40.05;;
27428;SDS011;14881;48.092;11.574;2024-02-28T04:38:32;60.53;;;36.58;;
27428;SDS011;14881;48.092;11.574;2024-02-28T04:41:01;59.88;;;38.13;;
27428;SDS011;14881;48.092;11.574;2024-02-28T04:43:29;62.45;;;39.17;;
27428;SDS011;14881;48.092;11.574;2024-02-28T04:45:57;60.17;;;38.60;;
27428;SDS011;14881;48.092;11.574;2024-02-28T04:48:25;56.20;;;36.40;;
27428;SDS011;14881;48.092;11.574;2024-02-28T04:50:53;60.30;;;38.47;;
27428;SDS011;14881;48.092;11.574;2024-02-28T04:53:21;58.40;;;38.35;;
27428;SDS011;14881;48.092;11.574;2024-02-28T04:55:52;57.22;;;37.70;;
27428;SDS011;14881;48.092;11.574;2024-02-28T04:58:23;57.08;;;38.97;;
27428;SDS011;14881;48.092;11.574;2024-02-28T05:00:51;58.35;;;38.40;;
27428;SDS011;14881;48.092;11.574;2024-02-28T05:03:19;58.97;;;38.13;;
27428;SDS011;14881;48.092;11.574;2024-02-28T05:05:48;59.85;;;38.47;;
27428;SDS011;14881;48.092;11.574;2024-02-28T05:08:17;59.50;;;39.90;;
27428;SDS011;14881;48.092;11.574;2024-02-28T05:10:46;61.17;;;39.92;;
27428;SDS011;14881;48.092;11.574;2024-02-28T05:13:14;63.83;;;40.70;;
27428;SDS011;14881;48.092;11.574;2024-02-28T05:15:43;69.18;;;42.55;;
27428;SDS011;14881;48.092;11.574;2024-02-28T05:18:11;71.07;;;43.38;;
27428;SDS011;14881;48.092;11.574;2024-02-28T05:20:39;66.18;;;40.22;;
27428;SDS011;14881;48.092;11.574;2024-02-28T05:23:07;65.63;;;40.53;;
27428;SDS011;14881;48.092;11.574;2024-02-28T05:25:35;69.72;;;41.50;;
27428;SDS011;14881;48.092;11.574;2024-02-28T05:28:03;66.20;;;42.15;;
27428;SDS011;14881;48.092;11.574;2024-02-28T05:30:31;60.15;;;40.22;;
27428;SDS011;14881;48.092;11.574;2024-02-28T05:33:00;67.63;;;41.75;;
27428;SDS011;14881;48.092;11.574;2024-02-28T05:35:28;69.00;;;42.22;;
27428;SDS011;14881;48.092;11.574;2024-02-28T05:37:56;66.63;;;42.13;;
27428;SDS011;14881;48.092;11.574;2024-02-28T05:40:23;66.70;;;41.58;;
27428;SDS011;14881;48.092;11.574;2024-02-28T05:42:51;67.25;;;40.88;;
27428;SDS011;14881;48.092;11.574;2024-02-28T05:45:19;67.03;;;41.30;;
27428;SDS011;14881;48.092;11.574;2024-02-28T05:47:47;65.15;;;40.95;;
27428;SDS011;14881;48.092;11.574;2024-02-28T05:50:16;64.22;;;40.95;;
27428;SDS011;14881;48.092;11.574;2024-02-28T05:52:44;62.63;;;41.42;;
27428;SDS011;14881;48.092;11.574;2024-02-28T05:55:12;63.55;;;40.72;;
27428;SDS011;14881;48.092;11.574;2024-02-28T05:57:40;63.30;;;41.17;;
27428;SDS011;14881;48.092;11.574;2024-02-28T06:00:08;66.70;;;41.55;;
27428;SDS011;14881;48.092;11.574;2024-02-28T06:02:37;74.20;;;44.03;;
27428;SDS011;14881;48.092;11.574;2024-02-28T06:05:05;67.85;;;42.40;;
27428;SDS011;14881;48.092;11.574;2024-02-28T06:07:35;71.15;;;43.72;;
27428;SDS011;14881;48.092;11.574;2024-02-28T06:10:03;62.38;;;41.30;;
27428;SDS011;14881;48.092;11.574;2024-02-28T06:12:31;73.22;;;42.40;;
27428;SDS011;14881;48.092;11.574;2024-02-28T06:14:59;69.68;;;42.17;;
27428;SDS011;14881;48.092;11.574;2024-02-28T06:17:27;67.05;;;41.60;;
27428;SDS011;14881;48.092;11.574;2024-02-28T06:19:55;73.53;;;43.40;;
27428;SDS011;14881;48.092;11.574;2024-02-28T06:22:23;69.68;;;43.28;;
27428;SDS011;14881;48.092;11.574;2024-02-28T06:24:52;68.45;;;43.08;;
27428;SDS011;14881;48.092;11.574;2024-02-28T06:27:20;72.10;;;43.70;;
27428;SDS011;14881;48.092;11.574;2024-02-28T06:29:48;71.28;;;43.25;;
27428;SDS011;14881;48.092;11.574;2024-02-28T06:32:16;71.50;;;43.17;;
27428;SDS011;14881;48.092;11.574;2024-02-28T06:34:44;72.97;;;42.50;;
27428;SDS011;14881;48.092;11.574;2024-02-28T06:37:11;75.72;;;43.42;;
27428;SDS011;14881;48.092;11.574;2024-02-28T06:39:39;72.90;;;44.85;;
27428;SDS011;14881;48.092;11.574;2024-02-28T06:42:09;77.80;;;44.28;;
27428;SDS011;14881;48.092;11.574;2024-02-28T06:44:37;73.55;;;44.28;;
27428;SDS011;14881;48.092;11.574;2024-02-28T06:47:05;73.20;;;43.28;;
27428;SDS011;14881;48.092;11.574;2024-02-28T06:49:33;69.60;;;43.35;;
27428;SDS011;14881;48.092;11.574;2024-02-28T06:52:00;68.15;;;41.65;;
27428;SDS011;14881;48.092;11.574;2024-02-28T06:54:28;74.00;;;43.85;;
27428;SDS011;14881;48.092;11.574;2024-02-28T06:56:56;72.07;;;42.15;;
27428;SDS011;14881;48.092;11.574;2024-02-28T06:59:25;73.82;;;44.42;;
27428;SDS011;14881;48.092;11.574;2024-02-28T07:01:53;73.60;;;43.25;;
27428;SDS011;14881;48.092;11.574;2024-02-28T07:04:21;68.20;;;41.55;;
27428;SDS011;14881;48.092;11.574;2024-02-28T07:06:49;76.75;;;44.83;;
27428;SDS011;14881;48.092;11.574;2024-02-28T07:09:17;69.88;;;43.35;;
27428;SDS011;14881;48.092;11.574;2024-02-28T07:11:45;68.45;;;42.15;;
27428;SDS011;14881;48.092;11.574;2024-02-28T07:14:12;73.30;;;43.50;;
27428;SDS011;14881;48.092;11.574;2024-02-28T07:16:44;73.25;;;43.33;;
27428;SDS011;14881;48.092;11.574;2024-02-28T07:19:12;74.25;;;45.03;;
27428;SDS011;14881;48.092;11.574;2024-02-28T07:21:40;74.55;;;45.58;;
27428;SDS011;14881;48.092;11.574;2024-02-28T07:24:08;73.85;;;43.97;;
27428;SDS011;14881;48.092;11.574;2024-02-28T07:26:36;73.20;;;42.58;;
27428;SDS011;14881;48.092;11.574;2024-02-28T07:29:05;71.22;;;42.35;;
27428;SDS011;14881;48.092;11.574;2024-02-28T07:31:33;71.95;;;42.42;;
27428;SDS011;14881;48.092;11.574;2024-02-28T07:34:02;69.25;;;39.78;;
27428;SDS011;14881;48.092;11.574;2024-02-28T07:36:31;72.55;;;42.72;;
27428;SDS011;14881;48.092;11.574;2024-02-28T07:38:58;75.28;;;43.17;;
27428;SDS011;14881;48.092;11.574;2024-02-28T07:41:26;70.05;;;41.00;;
27428;SDS011;14881;48.092;11.574;2024-02-28T07:43:55;72.78;;;40.15;;
27428;SDS011;14881;48.092;11.574;2024-02-28T07:46:23;72.38;;;39.63;;
27428;SDS011;14881;48.092;11.574;2024-02-28T07:48:50;63.13;;;37.63;;
27428;SDS011;14881;48.092;11.574;2024-02-28T07:51:20;68.40;;;38.28;;
27428;SDS011;14881;48.092;11.574;2024-02-28T07:53:48;67.82;;;37.88;;
27428;SDS011;14881;48.092;11.574;2024-02-28T07:56:16;67.55;;;39.10;;
27428;SDS011;14881;48.092;11.574;2024-02-28T07:58:49;69.10;;;40.25;;
27428;SDS011;14881;48.092;11.574;2024-02-28T08:01:17;74.65;;;41.97;;
27428;SDS011;14881;48.092;11.574;2024-02-28T08:03:46;71.03;;;40.22;;
27428;SDS011;14881;48.092;11.574;2024-02-28T08:06:14;71.78;;;39.88;;
27428;SDS011;14881;48.092;11.574;2024-02-28T08:08:45;71.68;;;41.38;;
27428;SDS011;14881;48.092;11.574;2024-02-28T08:11:13;76.15;;;42.67;;
27428;SDS011;14881;48.092;11.574;2024-02-28T08:13:41;77.50;;;44.20;;
27428;SDS011;14881;48.092;11.574;2024-02-28T08:16:10;75.70;;;41.72;;
27428;SDS011;14881;48.092;11.574;2024-02-28T08:18:38;80.80;;;43.35;;
27428;SDS011;14881;48.092;11.574;2024-02-28T08:21:06;76.97;;;41.10;;
27428;SDS011;14881;48.092;11.574;2024-02-28T08:23:34;84.22;;;45.17;;
27428;SDS011;14881;48.092;11.574;2024-02-28T08:26:03;80.68;;;44.05;;
27428;SDS011;14881;48.092;11.574;2024-02-28T08:28:31;81.18;;;44.65;;
27428;SDS011;14881;48.092;11.574;2024-02-28T08:30:59;84.13;;;45.78;;
27428;SDS011;14881;48.092;11.574;2024-02-28T08:33:27;80.35;;;44.67;;
27428;SDS011;14881;48.092;11.574;2024-02-28T08:35:55;78.95;;;46.00;;
27428;SDS011;14881;48.092;11.574;2024-02-28T08:38:23;76.10;;;45.70;;
27428;SDS011;14881;48.092;11.574;2024-02-28T08:40:51;80.35;;;46.00;;
27428;SDS011;14881;48.092;11.574;2024-02-28T08:43:20;79.30;;;45.38;;
27428;SDS011;14881;48.092;11.574;2024-02-28T08:45:48;88.90;;;47.95;;
27428;SDS011;14881;48.092;11.574;2024-02-28T08:48:18;82.70;;;46.13;;
27428;SDS011;14881;48.092;11.574;2024-02-28T08:50:46;90.28;;;47.40;;
27428;SDS011;14881;48.092;11.574;2024-02-28T08:53:13;87.32;;;46.65;;
27428;SDS011;14881;48.092;11.574;2024-02-28T08:55:41;82.88;;;46.70;;
27428;SDS011;14881;48.092;11.574;2024-02-28T08:58:09;77.15;;;45.95;;
27428;SDS011;14881;48.092;11.574;2024-02-28T09:00:39;73.95;;;43.45;;
27428;SDS011;14881;48.092;11.574;2024-02-28T09:03:07;77.38;;;45.28;;
27428;SDS011;14881;48.092;11.574;2024-02-28T09:05:35;76.68;;;44.10;;
27428;SDS011;14881;48.092;11.574;2024-02-28T09:08:03;78.53;;;45.15;;
27428;SDS011;14881;48.092;11.574;2024-02-28T09:10:36;74.85;;;43.67;;
27428;SDS011;14881;48.092;11.574;2024-02-28T09:13:03;77.72;;;44.60;;
27428;SDS011;14881;48.092;11.574;2024-02-28T09:15:33;71.55;;;41.80;;
27428;SDS011;14881;48.092;11.574;2024-02-28T09:18:02;75.40;;;44.72;;
27428;SDS011;14881;48.092;11.574;2024-02-28T09:20:37;73.00;;;42.22;;
27428;SDS011;14881;48.092;11.574;2024-02-28T09:23:05;78.40;;;44.05;;
27428;SDS011;14881;48.092;11.574;2024-02-28T09:25:33;79.93;;;43.47;;
27428;SDS011;14881;48.092;11.574;2024-02-28T09:28:02;76.70;;;44.30;;
27428;SDS011;14881;48.092;11.574;2024-02-28T09:30:30;73.50;;;42.50;;
27428;SDS011;14881;48.092;11.574;2024-02-28T09:33:12;80.65;;;43.05;;
27428;SDS011;14881;48.092;11.574;2024-02-28T09:35:40;72.47;;;41.80;;
27428;SDS011;14881;48.092;11.574;2024-02-28T09:38:09;78.47;;;43.30;;
27428;SDS011;14881;48.092;11.574;2024-02-28T09:40:36;82.68;;;44.70;;
27428;SDS011;14881;48.092;11.574;2024-02-28T09:43:04;75.22;;;45.00;;
27428;SDS011;14881;48.092;11.574;2024-02-28T09:45:33;81.70;;;45.35;;
27428;SDS011;14881;48.092;11.574;2024-02-28T09:48:02;77.30;;;43.42;;
27428;SDS011;14881;48.092;11.574;2024-02-28T09:50:33;82.10;;;47.03;;
27428;SDS011;14881;48.092;11.574;2024-02-28T09:53:00;80.07;;;45.08;;
27428;SDS011;14881;48.092;11.574;2024-02-28T09:55:36;85.38;;;45.53;;
27428;SDS011;14881;48.092;11.574;2024-02-28T09:58:04;78.75;;;44.70;;
27428;SDS011;14881;48.092;11.574;2024-02-28T10:00:33;80.38;;;45.40;;
27428;SDS011;14881;48.092;11.574;2024-02-28T10:03:02;79.25;;;45.50;;
27428;SDS011;14881;48.092;11.574;2024-02-28T10:05:33;84.05;;;46.35;;
27428;SDS011;14881;48.092;11.574;2024-02-28T10:08:02;84.95;;;47.10;;
27428;SDS011;14881;48.092;11.574;2024-02-28T10:10:31;76.18;;;43.13;;
27428;SDS011;14881;48.092;11.574;2024-02-28T10:12:59;86.95;;;45.53;;
27428;SDS011;14881;48.092;11.574;2024-02-28T10:15:27;78.30;;;43.92;;
27428;SDS011;14881;48.092;11.574;2024-02-28T10:17:55;79.43;;;43.63;;
27428;SDS011;14881;48.092;11.574;2024-02-28T10:20:23;76.40;;;44.00;;
27428;SDS011;14881;48.092;11.574;2024-02-28T10:22:53;78.65;;;44.40;;
27428;SDS011;14881;48.092;11.574;2024-02-28T10:25:21;78.15;;;42.67;;
27428;SDS011;14881;48.092;11.574;2024-02-28T10:27:50;78.47;;;45.30;;
27428;SDS011;14881;48.092;11.574;2024-02-28T10:30:18;84.75;;;46.50;;
27428;SDS011;14881;48.092;11.574;2024-02-28T10:32:49;84.65;;;45.85;;
27428;SDS011;14881;48.092;11.574;2024-02-28T10:35:17;74.47;;;42.95;;
27428;SDS011;14881;48.092;11.574;2024-02-28T10:37:47;78.18;;;43.70;;
27428;SDS011;14881;48.092;11.574;2024-02-28T10:40:18;85.68;;;47.03;;
27428;SDS011;14881;48.092;11.574;2024-02-28T10:42:47;80.50;;;45.38;;
27428;SDS011;14881;48.092;11.574;2024-02-28T10:45:16;77.95;;;44.63;;
27428;SDS011;14881;48.092;11.574;2024-02-28T10:48:05;73.88;;;43.42;;
27428;SDS011;14881;48.092;11.574;2024-02-28T10:50:34;77.97;;;45.65;;
27428;SDS011;14881;48.092;11.574;2024-02-28T10:53:04;75.30;;;44.22;;
27428;SDS011;14881;48.092;11.574;2024-02-28T10:55:42;81.68;;;46.17;;
27428;SDS011;14881;48.092;11.574;2024-02-28T10:58:14;79.07;;;45.10;;
27428;SDS011;14881;48.092;11.574;2024-02-28T11:00:42;75.05;;;45.35;;
27428;SDS011;14881;48.092;11.574;2024-02-28T11:03:13;82.05;;;45.63;;
27428;SDS011;14881;48.092;11.574;2024-02-28T11:05:43;70.55;;;42.45;;
27428;SDS011;14881;48.092;11.574;2024-02-28T11:08:19;69.82;;;40.90;;
27428;SDS011;14881;48.092;11.574;2024-02-28T11:10:55;68.15;;;42.30;;
27428;SDS011;14881;48.092;11.574;2024-02-28T11:13:24;75.60;;;42.58;;
27428;SDS011;14881;48.092;11.574;2024-02-28T11:15:53;73.50;;;43.55;;
27428;SDS011;14881;48.092;11.574;2024-02-28T11:18:21;68.35;;;41.95;;
27428;SDS011;14881;48.092;11.574;2024-02-28T11:20:49;69.95;;;42.22;;
27428;SDS011;14881;48.092;11.574;2024-02-28T11:23:17;65.68;;;39.97;;
27428;SDS011;14881;48.092;11.574;2024-02-28T11:25:45;64.95;;;40.17;;
27428;SDS011;14881;48.092;11.574;2024-02-28T11:28:15;60.97;;;38.28;;
27428;SDS011;14881;48.092;11.574;2024-02-28T11:30:43;66.05;;;39.50;;
27428;SDS011;14881;48.092;11.574;2024-02-28T11:33:11;64.97;;;40.13;;
27428;SDS011;14881;48.092;11.574;2024-02-28T11:35:39;63.15;;;37.72;;
27428;SDS011;14881;48.092;11.574;2024-02-28T11:38:07;65.80;;;39.35;;
27428;SDS011;14881;48.092;11.574;2024-02-28T11:40:38;60.28;;;38.03;;
27428;SDS011;14881;48.092;11.574;2024-02-28T11:43:06;60.40;;;37.45;;
27428;SDS011;14881;48.092;11.574;2024-02-28T11:45:40;59.17;;;36.47;;
27428;SDS011;14881;48.092;11.574;2024-02-28T11:48:09;59.38;;;36.95;;
27428;SDS011;14881;48.092;11.574;2024-02-28T11:50:37;61.22;;;37.15;;
27428;SDS011;14881;48.092;11.574;2024-02-28T11:53:05;67.00;;;39.92;;
27428;SDS011;14881;48.092;11.574;2024-02-28T11:55:33;61.30;;;37.83;;
27428;SDS011;14881;48.092;11.574;2024-02-28T11:58:02;64.03;;;39.67;;
27428;SDS011;14881;48.092;11.574;2024-02-28T12:00:34;67.38;;;41.28;;
27428;SDS011;14881;48.092;11.574;2024-02-28T12:03:19;69.95;;;41.47;;
27428;SDS011;14881;48.092;11.574;2024-02-28T12:05:48;70.22;;;41.45;;
27428;SDS011;14881;48.092;11.574;2024-02-28T12:08:17;66.03;;;39.83;;
27428;SDS011;14881;48.092;11.574;2024-02-28T12:10:46;65.80;;;41.63;;
27428;SDS011;14881;48.092;11.574;2024-02-28T12:13:17;64.72;;;39.58;;
27428;SDS011;14881;48.092;11.574;2024-02-28T12:15:45;70.35;;;41.70;;
27428;SDS011;14881;48.092;11.574;2024-02-28T12:18:15;71.45;;;42.38;;
27428;SDS011;14881;48.092;11.574;2024-02-28T12:20:43;67.50;;;41.45;;
27428;SDS011;14881;48.092;11.574;2024-02-28T12:23:12;71.10;;;41.05;;
27428;SDS011;14881;48.092;11.574;2024-02-28T12:25:39;68.05;;;40.65;;
27428;SDS011;14881;48.092;11.574;2024-02-28T12:28:07;68.40;;;41.28;;
27428;SDS011;14881;48.092;11.574;2024-02-28T12:30:39;70.20;;;42.53;;
27428;SDS011;14881;48.092;11.574;2024-02-28T12:33:10;71.63;;;43.35;;
27428;SDS011;14881;48.092;11.574;2024-02-28T12:35:39;72.85;;;42.33;;
27428;SDS011;14881;48.092;11.574;2024-02-28T12:38:08;67.40;;;42.38;;
27428;SDS011;14881;48.092;11.574;2024-02-28T12:40:36;65.97;;;41.80;;
27428;SDS011;14881;48.092;11.574;2024-02-28T12:43:04;66.50;;;42.13;;
27428;SDS011;14881;48.092;11.574;2024-02-28T12:45:32;70.60;;;43.35;;
27428;SDS011;14881;48.092;11.574;2024-02-28T12:48:00;71.70;;;43.42;;
27428;SDS011;14881;48.092;11.574;2024-02-28T12:50:30;76.40;;;43.83;;
27428;SDS011;14881;48.092;11.574;2024-02-28T12:53:00;69.43;;;42.60;;
27428;SDS011;14881;48.092;11.574;2024-02-28T12:55:27;79.35;;;43.33;;
27428;SDS011;14881;48.092;11.574;2024-02-28T12:57:55;71.75;;;42.75;;
27428;SDS011;14881;48.092;11.574;2024-02-28T13:00:26;70.50;;;43.25;;
27428;SDS011;14881;48.092;11.574;2024-02-28T13:02:54;70.32;;;42.63;;
27428;SDS011;14881;48.092;11.574;2024-02-28T13:05:22;68.22;;;41.05;;
27428;SDS011;14881;48.092;11.574;2024-02-28T13:07:51;73.03;;;43.05;;
27428;SDS011;14881;48.092;11.574;2024-02-28T13:10:19;66.38;;;41.25;;
27428;SDS011;14881;48.092;11.574;2024-02-28T13:12:48;63.85;;;39.90;;
27428;SDS011;14881;48.092;11.574;2024-02-28T13:15:16;64.00;;;39.53;;
27428;SDS011;14881;48.092;11.574;2024-02-28T13:17:44;62.70;;;39.05;;
27428;SDS011;14881;48.092;11.574;2024-02-28T13:20:16;57.75;;;36.22;;
27428;SDS011;14881;48.092;11.574;2024-02-28T13:22:44;61.97;;;39.55;;
27428;SDS011;14881;48.092;11.574;2024-02-28T13:25:13;63.70;;;39.13;;
27428;SDS011;14881;48.092;11.574;2024-02-28T13:27:41;59.63;;;35.80;;
27428;SDS011;14881;48.092;11.574;2024-02-28T13:30:10;62.03;;;38.85;;
27428;SDS011;14881;48.092;11.574;2024-02-28T13:32:38;60.25;;;38.50;;
27428;SDS011;14881;48.092;11.574;2024-02-28T13:35:07;62.45;;;38.38;;
27428;SDS011;14881;48.092;11.574;2024-02-28T13:37:36;55.35;;;37.00;;
27428;SDS011;14881;48.092;11.574;2024-02-28T13:40:07;57.72;;;36.28;;
27428;SDS011;14881;48.092;11.574;2024-02-28T13:42:38;66.35;;;38.97;;
27428;SDS011;14881;48.092;11.574;2024-02-28T13:45:06;60.67;;;39.70;;
27428;SDS011;14881;48.092;11.574;2024-02-28T13:47:35;58.60;;;37.83;;
27428;SDS011;14881;48.092;11.574;2024-02-28T13:50:04;58.20;;;38.53;;
27428;SDS011;14881;48.092;11.574;2024-02-28T13:52:33;60.10;;;39.20;;
27428;SDS011;14881;48.092;11.574;2024-02-28T13:55:00;56.53;;;37.88;;
27428;SDS011;14881;48.092;11.574;2024-02-28T13:57:29;59.05;;;37.88;;
27428;SDS011;14881;48.092;11.574;2024-02-28T13:59:59;64.45;;;37.47;;
27428;SDS011;14881;48.092;11.574;2024-02-28T14:02:26;58.85;;;36.35;;
27428;SDS011;14881;48.092;11.574;2024-02-28T14:04:54;60.67;;;39.40;;
27428;SDS011;14881;48.092;11.574;2024-02-28T14:07:22;58.00;;;37.20;;
27428;SDS011;14881;48.092;11.574;2024-02-28T14:09:50;56.38;;;36.88;;
27428;SDS011;14881;48.092;11.574;2024-02-28T14:12:18;61.85;;;37.03;;
27428;SDS011;14881;48.092;11.574;2024-02-28T14:14:46;57.03;;;37.20;;
27428;SDS011;14881;48.092;11.574;2024-02-28T14:17:15;57.97;;;37.03;;